createdAt,value
2022-12-08T00:04:22.962Z,3.70
2022-12-08T00:09:39.353Z,2.70
2022-12-08T00:14:44.983Z,3.00
2022-12-08T00:19:47.834Z,2.90
2022-12-08T00:24:50.770Z,3.10
2022-12-08T00:29:56.080Z,2.80
2022-12-08T00:34:58.830Z,3.00
2022-12-08T00:40:01.829Z,2.70
2022-12-08T00:45:08.259Z,2.60
2022-12-08T00:50:11.670Z,2.40
2022-12-08T00:55:17.289Z,2.70
2022-12-08T01:00:20.637Z,2.00
2022-12-08T01:05:23.422Z,2.20
2022-12-08T01:10:26.645Z,1.90
2022-12-08T01:15:29.461Z,2.00
2022-12-08T01:20:32.266Z,2.00
2022-12-08T01:25:35.616Z,2.00
2022-12-08T01:30:39.468Z,1.90
2022-12-08T01:35:42.892Z,1.90
2022-12-08T01:40:46.180Z,1.60
2022-12-08T01:45:49.330Z,2.00
2022-12-08T01:50:54.690Z,1.90
2022-12-08T01:56:01.793Z,2.10
2022-12-08T02:01:04.750Z,2.20
2022-12-08T02:06:08.430Z,2.20
2022-12-08T02:11:11.760Z,2.00
2022-12-08T02:16:36.031Z,2.30
2022-12-08T02:22:23.004Z,2.90
2022-12-08T02:28:29.236Z,2.20
2022-12-08T02:34:15.661Z,2.20
2022-12-08T02:39:58.339Z,2.00
2022-12-08T02:45:04.677Z,2.40
2022-12-08T02:50:08.344Z,3.70
2022-12-08T02:55:22.493Z,3.00
2022-12-08T03:00:28.166Z,3.10
2022-12-08T03:05:38.187Z,3.30
2022-12-08T03:10:45.153Z,3.20
2022-12-08T03:15:49.987Z,3.50
2022-12-08T03:20:53.116Z,3.10
2022-12-08T03:26:26.052Z,2.70
2022-12-08T03:31:31.040Z,3.10
2022-12-08T03:36:34.955Z,3.00
2022-12-08T03:41:37.749Z,3.10
2022-12-08T03:46:40.555Z,3.30
2022-12-08T03:51:43.592Z,3.10
2022-12-08T03:56:46.431Z,3.00
2022-12-08T04:01:50.410Z,3.10
2022-12-08T04:06:53.291Z,3.80
2022-12-08T04:11:56.137Z,3.40
2022-12-08T04:16:58.917Z,4.10
2022-12-08T04:22:01.714Z,4.10
2022-12-08T04:27:04.569Z,4.00
2022-12-08T04:32:07.445Z,4.00
2022-12-08T04:37:10.344Z,4.40
2022-12-08T04:42:13.176Z,4.90
2022-12-08T04:47:16.031Z,5.10
2022-12-08T04:52:18.860Z,4.80
2022-12-08T04:57:21.727Z,4.50
2022-12-08T05:02:24.612Z,5.10
2022-12-08T05:07:27.583Z,5.20
2022-12-08T05:12:31.871Z,5.70
2022-12-08T05:17:34.649Z,5.00
2022-12-08T05:22:37.539Z,5.70
2022-12-08T05:27:40.427Z,5.80
2022-12-08T05:32:43.468Z,6.40
2022-12-08T05:37:47.577Z,5.80
2022-12-08T05:42:50.339Z,5.80
2022-12-08T05:47:53.865Z,6.40
2022-12-08T05:52:56.941Z,5.70
2022-12-08T05:58:04.540Z,6.00
2022-12-08T06:03:14.574Z,6.40
2022-12-08T06:08:17.887Z,6.30
2022-12-08T06:13:20.716Z,6.20
2022-12-08T06:18:28.365Z,6.30
2022-12-08T06:23:36.224Z,6.70
2022-12-08T06:28:40.167Z,6.40
2022-12-08T06:33:43.296Z,6.60
2022-12-08T06:38:47.533Z,6.70
2022-12-08T06:43:51.075Z,6.60
2022-12-08T06:48:53.923Z,6.40
2022-12-08T06:53:58.247Z,6.40
2022-12-08T06:59:01.437Z,6.60
2022-12-08T07:04:05.398Z,7.10
2022-12-08T07:09:08.539Z,6.90
2022-12-08T07:14:12.069Z,6.60
2022-12-08T07:19:15.179Z,6.70
2022-12-08T07:24:17.944Z,7.00
2022-12-08T07:29:26.088Z,7.00
2022-12-08T07:34:29.332Z,7.40
2022-12-08T07:39:32.288Z,6.50
2022-12-08T07:44:35.068Z,7.70
2022-12-08T07:49:38.025Z,9.10
2022-12-08T07:54:40.949Z,9.20
2022-12-08T07:59:43.757Z,9.90
2022-12-08T08:04:50.646Z,11.70
2022-12-08T08:09:53.547Z,11.30
2022-12-08T08:14:56.387Z,11.10
2022-12-08T08:19:59.827Z,11.60
2022-12-08T08:25:04.162Z,10.10
2022-12-08T08:30:09.295Z,10.00
2022-12-08T08:35:12.242Z,11.00
2022-12-08T08:40:15.196Z,10.00
2022-12-08T08:45:18.056Z,10.90
2022-12-08T08:50:22.444Z,9.60
2022-12-08T08:55:25.305Z,9.50
2022-12-08T09:00:28.451Z,9.90
2022-12-08T09:05:31.283Z,10.30
2022-12-08T09:10:34.145Z,10.00
2022-12-08T09:15:37.382Z,9.70
2022-12-08T09:20:40.181Z,9.70
2022-12-08T09:25:45.685Z,9.90
2022-12-08T09:30:48.851Z,9.40
2022-12-08T09:35:51.688Z,9.50
2022-12-08T09:40:54.825Z,9.70
2022-12-08T09:45:57.684Z,10.20
2022-12-08T09:51:01.046Z,10.20
2022-12-08T09:56:18.918Z,9.20
2022-12-08T10:01:33.991Z,9.80
2022-12-08T10:06:48.117Z,11.20
2022-12-08T10:12:16.759Z,11.90
2022-12-08T10:17:30.773Z,12.60
2022-12-08T10:22:37.583Z,11.40
2022-12-08T10:27:42.853Z,12.50
2022-12-08T10:32:48.074Z,11.40
2022-12-08T10:38:02.177Z,12.60
2022-12-08T10:43:07.060Z,12.70
2022-12-08T10:48:27.417Z,13.50
2022-12-08T10:53:33.875Z,13.30
2022-12-08T10:58:41.076Z,12.70
2022-12-08T11:04:02.098Z,13.60
2022-12-08T11:09:20.073Z,12.70
2022-12-08T11:14:29.608Z,13.40
2022-12-08T11:19:32.575Z,14.80
2022-12-08T11:24:40.997Z,12.50
2022-12-08T11:30:31.015Z,14.00
2022-12-08T11:35:39.174Z,13.20
2022-12-08T11:40:44.021Z,13.90
2022-12-08T11:46:14.753Z,15.90
2022-12-08T11:56:38.975Z,16.90
2022-12-08T12:01:45.551Z,15.20
2022-12-08T12:07:26.518Z,16.00
2022-12-08T12:13:02.414Z,17.60
2022-12-08T12:18:33.789Z,17.20
2022-12-08T12:23:59.210Z,17.00
2022-12-08T12:29:33.039Z,16.10
2022-12-08T12:34:56.028Z,16.90
2022-12-08T12:40:01.393Z,18.20
2022-12-08T12:45:22.185Z,20.20
2022-12-08T12:50:34.234Z,17.20
2022-12-08T12:55:46.273Z,20.60
2022-12-08T13:00:49.296Z,23.00
2022-12-08T13:05:52.625Z,22.00
2022-12-08T13:11:14.922Z,21.30
2022-12-08T13:16:20.512Z,21.90
2022-12-08T13:21:27.609Z,22.20
2022-12-08T13:26:32.614Z,21.20
2022-12-08T13:31:51.476Z,20.70
2022-12-08T13:37:02.419Z,19.90
2022-12-08T13:42:31.207Z,20.70
2022-12-08T13:48:13.566Z,21.00
2022-12-08T13:58:44.862Z,21.80
2022-12-08T14:04:30.992Z,22.70
2022-12-08T14:09:24.357Z,23.90
2022-12-08T14:21:05.056Z,21.10
2022-12-08T14:26:05.043Z,22.50
2022-12-08T14:31:08.117Z,21.40
2022-12-08T14:36:14.659Z,21.20
2022-12-08T14:41:17.426Z,22.80
2022-12-08T14:46:22.739Z,22.30
2022-12-08T14:51:30.742Z,20.80
2022-12-08T14:56:41.287Z,22.50
2022-12-08T15:01:44.338Z,22.40
2022-12-08T15:06:53.668Z,22.00
2022-12-08T15:12:15.071Z,21.90
2022-12-08T15:17:33.448Z,26.00
2022-12-08T15:22:37.105Z,22.70
2022-12-08T15:27:49.868Z,22.50
2022-12-08T15:32:56.388Z,21.60
2022-12-08T15:37:59.287Z,23.70
2022-12-08T15:43:03.525Z,24.50
2022-12-08T15:48:06.662Z,22.90
2022-12-08T15:53:10.762Z,23.20
2022-12-08T16:09:21.156Z,23.40
2022-12-08T16:15:23.395Z,22.10
2022-12-08T16:19:47.206Z,22.90
2022-12-08T16:24:50.157Z,25.20
2022-12-08T16:29:53.012Z,23.90
2022-12-08T16:34:55.885Z,21.90
2022-12-08T16:40:00.361Z,24.00
2022-12-08T16:45:21.551Z,22.90
2022-12-08T16:50:29.655Z,22.20
2022-12-08T16:55:32.762Z,23.30
2022-12-08T17:00:37.057Z,21.80
2022-12-08T17:05:41.457Z,23.10
2022-12-08T17:10:44.288Z,21.50
2022-12-08T17:15:48.006Z,20.90
2022-12-08T17:20:50.909Z,21.90
2022-12-08T17:25:59.407Z,21.30
2022-12-08T17:31:30.303Z,21.50
2022-12-08T17:36:33.818Z,21.20
2022-12-08T17:41:37.350Z,21.00
2022-12-08T17:46:43.360Z,21.20
2022-12-08T17:51:49.648Z,20.90
2022-12-08T17:56:52.764Z,19.30
2022-12-08T18:01:58.201Z,19.70
2022-12-08T18:07:03.469Z,21.00
2022-12-08T18:12:06.603Z,19.30
2022-12-08T18:17:09.922Z,20.50
2022-12-08T18:22:12.994Z,20.40
2022-12-08T18:27:16.034Z,20.40
2022-12-08T18:32:24.217Z,20.20
2022-12-08T18:37:27.480Z,19.80
2022-12-08T18:42:30.477Z,20.60
2022-12-08T18:47:39.949Z,21.40
2022-12-08T18:52:42.772Z,21.90
2022-12-08T18:57:45.709Z,22.70
2022-12-08T19:02:48.531Z,24.20
2022-12-08T19:07:52.250Z,22.50
2022-12-08T19:12:55.026Z,21.30
2022-12-08T19:17:58.361Z,20.50
2022-12-08T19:23:01.624Z,21.20
2022-12-08T19:28:05.769Z,20.00
2022-12-08T19:33:09.717Z,17.90
2022-12-08T19:38:13.323Z,18.40
2022-12-08T19:43:37.009Z,18.80
2022-12-08T19:48:40.269Z,19.30
2022-12-08T19:53:47.546Z,17.90
2022-12-08T19:58:50.959Z,18.60
2022-12-08T20:03:53.885Z,20.20
2022-12-08T20:08:56.677Z,18.00
2022-12-08T20:13:59.521Z,20.00
2022-12-08T20:19:02.620Z,20.70
2022-12-08T20:24:05.985Z,19.70
2022-12-08T20:29:09.097Z,20.30
2022-12-08T20:34:15.598Z,18.70
2022-12-08T20:39:18.733Z,19.40
2022-12-08T20:44:21.717Z,22.00
2022-12-08T20:49:27.257Z,19.70
2022-12-08T20:54:33.121Z,20.40
2022-12-08T20:59:37.839Z,20.30
2022-12-08T21:04:40.839Z,20.90
2022-12-08T21:09:46.870Z,21.10
2022-12-08T21:14:49.961Z,22.50
2022-12-08T21:19:52.843Z,24.30
2022-12-08T21:24:56.042Z,26.60
2022-12-08T21:29:58.851Z,25.90
2022-12-08T21:35:01.667Z,24.60
2022-12-08T21:40:07.381Z,23.70
2022-12-08T21:45:16.808Z,22.50
2022-12-08T21:50:19.932Z,24.00
2022-12-08T21:55:23.874Z,25.30
2022-12-08T22:00:27.010Z,24.10
2022-12-08T22:05:29.954Z,22.90
2022-12-08T22:10:32.876Z,24.50
2022-12-08T22:15:36.975Z,23.40
2022-12-08T22:20:44.122Z,24.40
2022-12-08T22:26:00.486Z,23.90
2022-12-08T22:31:14.767Z,26.40
2022-12-08T22:36:23.365Z,24.30
2022-12-08T22:41:26.387Z,24.10
2022-12-08T22:46:31.651Z,23.70
2022-12-08T22:51:38.167Z,23.10
2022-12-08T22:56:42.386Z,23.50
2022-12-08T23:01:45.905Z,22.50
2022-12-08T23:06:49.508Z,21.50
2022-12-08T23:11:52.791Z,22.50
2022-12-08T23:16:56.099Z,22.00
2022-12-08T23:21:58.942Z,21.70
2022-12-08T23:27:01.734Z,20.70
2022-12-08T23:32:06.345Z,22.30
2022-12-08T23:37:09.288Z,20.60
2022-12-08T23:42:12.133Z,20.40
2022-12-08T23:47:16.283Z,20.40
2022-12-08T23:52:19.343Z,20.90
2022-12-08T23:57:22.179Z,20.50
